Terminal Aerodrome Forecast
Issued by NWS

Home | Current Version | Previous Version | Graphics & Text | Print | Product List | Glossary On
Versions: 1 2 3 4 5 6 7 8 9 10 11 12 13 14 15 16 17 18 19 20 21 22 23 24 25 26 27 28 29 30 31 32 33 34 35 36 37 38
889
FTUS43 KABR 231633 AAF
TAFATY
TAF AMD
KATY 231633Z 2317/2412 11015G20KT 5SM -RA BR OVC015
     FM231900 10016KT 5SM BR OVC003
     FM232200 11017G24KT P6SM BKN008
     FM240000 11017G24KT P6SM BKN010
     FM240300 12016KT P6SM SCT010=

USA.gov is the U.S. government's official web portal to all federal, state and local government web resources and services.